This is the latest recevied weather packets stored in our database for station/object WA4IKQ. If no packets are shown the sender has not sent any weather packets the latest 10 day(s).
| Time | Temp. | Humidity | Pressure | Rain* | Wind** | Luminosity | Snow |
|---|---|---|---|---|---|---|---|
| 1778171092 | 31.67° C | 46% | 1015.4 hPa | 0 mm | 3.13 m/s, 170° | - | - |
| 1778170873 | 31.67° C | 46% | 1015.4 hPa | 0 mm | 3.13 m/s, 170° | - | - |
| 1778170673 | 31.67° C | 46% | 1015.5 hPa | 0 mm | 3.13 m/s, 165° | - | - |
| 1778170573 | 31.67° C | 46% | 1015.5 hPa | 0 mm | 3.13 m/s, 165° | - | - |
| 1778170472 | 31.67° C | 46% | 1015.5 hPa | 0 mm | 1.79 m/s, 208° | - | - |
| 1778170274 | 31.67° C | 46% | 1015.5 hPa | 0 mm | 1.79 m/s, 208° | - | - |
| 1778170070 | 31.67° C | 47% | 1015.7 hPa | 0 mm | 4.47 m/s, 152° | - | - |
| 1778169971 | 31.67° C | 47% | 1015.7 hPa | 0 mm | 4.47 m/s, 152° | - | - |
| 1778169867 | 31.67° C | 47% | 1015.6 hPa | 0 mm | 4.02 m/s, 152° | - | - |
| 1778169783 | 31.67° C | 47% | 1015.6 hPa | 0 mm | 4.02 m/s, 152° | - | - |
| 1778169671 | 31.67° C | 47% | 1015.6 hPa | 0 mm | 4.02 m/s, 152° | - | - |
| 1778169475 | 31.11° C | 48% | 1015.6 hPa | 0 mm | 4.02 m/s, 158° | - | - |
| 1778169372 | 31.11° C | 48% | 1015.6 hPa | 0 mm | 4.02 m/s, 158° | - | - |
| 1778169148 | 31.67° C | 47% | 1015.7 hPa | 0 mm | 5.36 m/s, 174° | - | - |
| 1778169111 | 31.67° C | 47% | 1015.7 hPa | 0 mm | 5.36 m/s, 174° | - | - |
| 1778169072 | 31.67° C | 47% | 1015.7 hPa | 0 mm | 5.36 m/s, 174° | - | - |
| 1778168860 | 31.11° C | 48% | 1015.8 hPa | 0 mm | 4.02 m/s, 197° | - | - |
| 1778168775 | 31.11° C | 48% | 1015.8 hPa | 0 mm | 4.02 m/s, 197° | - | - |
| 1778168523 | 31.11° C | 48% | 1015.8 hPa | 0 mm | 3.13 m/s, 174° | - | - |
| 1778168334 | 31.11° C | 48% | 1015.9 hPa | 0 mm | 1.34 m/s, 184° | - | - |
| 1778168287 | 31.11° C | 48% | 1015.9 hPa | 0 mm | 1.34 m/s, 184° | - | - |
| 1778168173 | 31.11° C | 48% | 1015.9 hPa | 0 mm | 1.34 m/s, 184° | - | - |
| 1778167925 | 31.11° C | 48% | 1015.8 hPa | 0 mm | 2.24 m/s, 173° | - | - |
| 1778167870 | 31.11° C | 48% | 1015.8 hPa | 0 mm | 2.24 m/s, 173° | - | - |
| 1778167661 | 30.56° C | 48% | 1015.8 hPa | 0 mm | 2.24 m/s, 208° | - | - |
* Rain latest hour (hover to see other rain measurements)
** Current wind speed in m/s (hover to see current wind gust speed)